Airfield :
LOGIN :

Register | Disclaimer

   EN    FR    IT 

 










Legend :    VFR   Marginal VFR   IFR   Intensive IFR   Very Intensive IFR
Visi :
Ceiling :
>= 8 km
>= 3000ft
5 to 8 km
1000 to 3000 ft
1500m to 5 km
500 to 1000 ft
800 to 1500m
200 to 500 ft
< 800m
< 200 ft
Symbols :   Thunderstorms  Fog  Heavy snow  Heavy precipitations  Wind > 20 kt
SIGMETs :     Misc.  Thunderstorms  Icing  Turbulence  Mountain Waves  Volcanic Ashes






- Airport Elevation : 125 ft
- IATA code : MGL


EDLN - Mönchengladbach

CURRENT METAR :
  • 110450Z AUTO 14006KT 9999 // OVC013/// 04/04 Q1010

EXPIRED METARs :
  • 110420Z AUTO 15007KT 120V190 9999 // FEW006/// OVC013/// 04/03 Q1011
  • 110350Z AUTO 14007KT 110V170 9999 // FEW005/// OVC013/// 04/03 Q1011
  • 110320Z AUTO 15007KT 110V190 5000 // FEW005/// OVC016/// 04/03 Q1011
  • 110250Z AUTO 15008KT 3900 // FEW014/// OVC016/// 04/03 Q1011
  • 110220Z AUTO 15009KT 120V180 4300 // OVC023/// 04/02 Q1012
  • 110150Z AUTO 16010KT 9999 // OVC028/// 05/01 Q1012

Expired Forecast.



MET'MAP, your aeronautical weather chart ! - Copyright ORBIFLY December 2007 - Disclaimer

ORBIFLY MET'MAP TEAM :

Programming & Development : Alexandra Zaïnal
Concept & original design : Baudouin d'Aumeries
Assistance for programming : Marc-Olivier Méhu
Technical & hardware support : Manuel Goepfert

Contact : metmap@orbifly.com




SOURCES & CREDITS :

   NOAA